<?xml version="1.0" encoding="UTF-8"?>
<gpx version="1.0" creator="Gaggle https://github.com/geeksville/Gaggle" xmlns:xsi="http://www.w3.org/2001/XMLSchema-instance" xmlns="http://www.topografix.com/GPX/1/0" xsi:schemaLocation="http://www.topografix.com/GPX/1/0 http://www.topografix.com/GPX/1/0/gpx.xsd">
<trk>
	<name>Jorgev's flight</name>
	<desc>
	Pilot name:	Jorgev
	Pilot ID:	
	Glider type:	Rush 2
	</desc>
	<trkseg>
		<trkpt lat="42.873266" lon="-5.374915">
			<ele>1591.000000</ele>
		<time>2015-12-22T02:54:13Z</time>
		</trkpt>

		<trkpt lat="42.873319" lon="-5.374933">
			<ele>1606.000000</ele>
		<time>2015-12-22T02:54:15Z</time>
		</trkpt>

		<trkpt lat="42.873272" lon="-5.374929">
			<ele>1604.000000</ele>
		<time>2015-12-22T02:54:46Z</time>
		</trkpt>

		<trkpt lat="42.873244" lon="-5.374914">
			<ele>1604.000000</ele>
		<time>2015-12-22T02:56:07Z</time>
		</trkpt>

		<trkpt lat="42.873225" lon="-5.374887">
			<ele>1604.000000</ele>
		<time>2015-12-22T02:56:57Z</time>
		</trkpt>

		<trkpt lat="42.873193" lon="-5.374884">
			<ele>1603.000000</ele>
		<time>2015-12-22T02:57:13Z</time>
		</trkpt>

		<trkpt lat="42.873148" lon="-5.374830">
			<ele>1603.000000</ele>
		<time>2015-12-22T02:57:16Z</time>
		</trkpt>

		<trkpt lat="42.872881" lon="-5.374714">
			<ele>1598.000000</ele>
		<time>2015-12-22T02:57:20Z</time>
		</trkpt>

		<trkpt lat="42.872690" lon="-5.374677">
			<ele>1595.000000</ele>
		<time>2015-12-22T02:57:23Z</time>
		</trkpt>

		<trkpt lat="42.872481" lon="-5.374727">
			<ele>1596.000000</ele>
		<time>2015-12-22T02:57:26Z</time>
		</trkpt>

		<trkpt lat="42.872289" lon="-5.374945">
			<ele>1594.000000</ele>
		<time>2015-12-22T02:57:29Z</time>
		</trkpt>

		<trkpt lat="42.872139" lon="-5.375249">
			<ele>1593.000000</ele>
		<time>2015-12-22T02:57:32Z</time>
		</trkpt>

		<trkpt lat="42.871923" lon="-5.375731">
			<ele>1589.000000</ele>
		<time>2015-12-22T02:57:36Z</time>
		</trkpt>

		<trkpt lat="42.871788" lon="-5.376100">
			<ele>1586.000000</ele>
		<time>2015-12-22T02:57:39Z</time>
		</trkpt>

		<trkpt lat="42.871678" lon="-5.376472">
			<ele>1583.000000</ele>
		<time>2015-12-22T02:57:42Z</time>
		</trkpt>

		<trkpt lat="42.871492" lon="-5.376805">
			<ele>1579.000000</ele>
		<time>2015-12-22T02:57:45Z</time>
		</trkpt>

		<trkpt lat="42.871294" lon="-5.376941">
			<ele>1573.000000</ele>
		<time>2015-12-22T02:57:48Z</time>
		</trkpt>

		<trkpt lat="42.871121" lon="-5.376919">
			<ele>1570.000000</ele>
		<time>2015-12-22T02:57:51Z</time>
		</trkpt>

		<trkpt lat="42.871066" lon="-5.376760">
			<ele>1561.000000</ele>
		<time>2015-12-22T02:57:54Z</time>
		</trkpt>

		<trkpt lat="42.871065" lon="-5.376570">
			<ele>1556.000000</ele>
		<time>2015-12-22T02:57:57Z</time>
		</trkpt>

		<trkpt lat="42.871040" lon="-5.376393">
			<ele>1553.000000</ele>
		<time>2015-12-22T02:58:00Z</time>
		</trkpt>

		<trkpt lat="42.871026" lon="-5.376183">
			<ele>1547.000000</ele>
		<time>2015-12-22T02:58:03Z</time>
		</trkpt>

		<trkpt lat="42.870982" lon="-5.375976">
			<ele>1546.000000</ele>
		<time>2015-12-22T02:58:06Z</time>
		</trkpt>

		<trkpt lat="42.870929" lon="-5.375888">
			<ele>1544.000000</ele>
		<time>2015-12-22T02:58:09Z</time>
		</trkpt>

		<trkpt lat="42.870909" lon="-5.375697">
			<ele>1543.000000</ele>
		<time>2015-12-22T02:58:12Z</time>
		</trkpt>

		<trkpt lat="42.870823" lon="-5.375566">
			<ele>1541.000000</ele>
		<time>2015-12-22T02:58:15Z</time>
		</trkpt>

		<trkpt lat="42.870771" lon="-5.375392">
			<ele>1537.000000</ele>
		<time>2015-12-22T02:58:18Z</time>
		</trkpt>

		<trkpt lat="42.870786" lon="-5.375242">
			<ele>1534.000000</ele>
		<time>2015-12-22T02:58:21Z</time>
		</trkpt>

		<trkpt lat="42.870782" lon="-5.375076">
			<ele>1531.000000</ele>
		<time>2015-12-22T02:58:24Z</time>
		</trkpt>

		<trkpt lat="42.870754" lon="-5.374902">
			<ele>1527.000000</ele>
		<time>2015-12-22T02:58:27Z</time>
		</trkpt>

		<trkpt lat="42.870649" lon="-5.374717">
			<ele>1523.000000</ele>
		<time>2015-12-22T02:58:30Z</time>
		</trkpt>

		<trkpt lat="42.870552" lon="-5.374561">
			<ele>1523.000000</ele>
		<time>2015-12-22T02:58:33Z</time>
		</trkpt>

		<trkpt lat="42.870493" lon="-5.374415">
			<ele>1523.000000</ele>
		<time>2015-12-22T02:58:36Z</time>
		</trkpt>

		<trkpt lat="42.870505" lon="-5.374203">
			<ele>1520.000000</ele>
		<time>2015-12-22T02:58:39Z</time>
		</trkpt>

		<trkpt lat="42.870521" lon="-5.373946">
			<ele>1520.000000</ele>
		<time>2015-12-22T02:58:42Z</time>
		</trkpt>

		<trkpt lat="42.870548" lon="-5.373713">
			<ele>1520.000000</ele>
		<time>2015-12-22T02:58:45Z</time>
		</trkpt>

		<trkpt lat="42.870562" lon="-5.373517">
			<ele>1516.000000</ele>
		<time>2015-12-22T02:58:48Z</time>
		</trkpt>

		<trkpt lat="42.870593" lon="-5.373295">
			<ele>1516.000000</ele>
		<time>2015-12-22T02:58:51Z</time>
		</trkpt>

		<trkpt lat="42.870603" lon="-5.373081">
			<ele>1512.000000</ele>
		<time>2015-12-22T02:58:54Z</time>
		</trkpt>

		<trkpt lat="42.870443" lon="-5.372887">
			<ele>1512.000000</ele>
		<time>2015-12-22T02:58:57Z</time>
		</trkpt>

		<trkpt lat="42.870368" lon="-5.372716">
			<ele>1510.000000</ele>
		<time>2015-12-22T02:59:00Z</time>
		</trkpt>

		<trkpt lat="42.870230" lon="-5.372556">
			<ele>1509.000000</ele>
		<time>2015-12-22T02:59:03Z</time>
		</trkpt>

		<trkpt lat="42.869963" lon="-5.372518">
			<ele>1506.000000</ele>
		<time>2015-12-22T02:59:06Z</time>
		</trkpt>

		<trkpt lat="42.869709" lon="-5.372677">
			<ele>1504.000000</ele>
		<time>2015-12-22T02:59:09Z</time>
		</trkpt>

		<trkpt lat="42.869420" lon="-5.372694">
			<ele>1497.000000</ele>
		<time>2015-12-22T02:59:12Z</time>
		</trkpt>

		<trkpt lat="42.869189" lon="-5.372673">
			<ele>1490.000000</ele>
		<time>2015-12-22T02:59:15Z</time>
		</trkpt>

		<trkpt lat="42.869004" lon="-5.372553">
			<ele>1483.000000</ele>
		<time>2015-12-22T02:59:18Z</time>
		</trkpt>

		<trkpt lat="42.868806" lon="-5.372401">
			<ele>1479.000000</ele>
		<time>2015-12-22T02:59:21Z</time>
		</trkpt>

		<trkpt lat="42.868644" lon="-5.372281">
			<ele>1474.000000</ele>
		<time>2015-12-22T02:59:24Z</time>
		</trkpt>

		<trkpt lat="42.868449" lon="-5.372239">
			<ele>1472.000000</ele>
		<time>2015-12-22T02:59:27Z</time>
		</trkpt>

		<trkpt lat="42.868253" lon="-5.372198">
			<ele>1468.000000</ele>
		<time>2015-12-22T02:59:30Z</time>
		</trkpt>

		<trkpt lat="42.868084" lon="-5.372090">
			<ele>1465.000000</ele>
		<time>2015-12-22T02:59:33Z</time>
		</trkpt>

		<trkpt lat="42.867967" lon="-5.371953">
			<ele>1460.000000</ele>
		<time>2015-12-22T02:59:36Z</time>
		</trkpt>

		<trkpt lat="42.867855" lon="-5.371782">
			<ele>1457.000000</ele>
		<time>2015-12-22T02:59:39Z</time>
		</trkpt>

		<trkpt lat="42.867672" lon="-5.371494">
			<ele>1451.000000</ele>
		<time>2015-12-22T02:59:44Z</time>
		</trkpt>

		<trkpt lat="42.867573" lon="-5.371341">
			<ele>1448.000000</ele>
		<time>2015-12-22T02:59:47Z</time>
		</trkpt>

		<trkpt lat="42.867439" lon="-5.371206">
			<ele>1445.000000</ele>
		<time>2015-12-22T02:59:50Z</time>
		</trkpt>

		<trkpt lat="42.867359" lon="-5.371059">
			<ele>1440.000000</ele>
		<time>2015-12-22T02:59:53Z</time>
		</trkpt>

		<trkpt lat="42.867255" lon="-5.370876">
			<ele>1435.000000</ele>
		<time>2015-12-22T02:59:56Z</time>
		</trkpt>

		<trkpt lat="42.866991" lon="-5.370548">
			<ele>1425.000000</ele>
		<time>2015-12-22T03:00:03Z</time>
		</trkpt>

		<trkpt lat="42.866844" lon="-5.370363">
			<ele>1421.000000</ele>
		<time>2015-12-22T03:00:06Z</time>
		</trkpt>

		<trkpt lat="42.866698" lon="-5.370228">
			<ele>1414.000000</ele>
		<time>2015-12-22T03:00:09Z</time>
		</trkpt>

		<trkpt lat="42.866577" lon="-5.370065">
			<ele>1411.000000</ele>
		<time>2015-12-22T03:00:12Z</time>
		</trkpt>

		<trkpt lat="42.866467" lon="-5.369944">
			<ele>1408.000000</ele>
		<time>2015-12-22T03:00:15Z</time>
		</trkpt>

		<trkpt lat="42.866350" lon="-5.369754">
			<ele>1402.000000</ele>
		<time>2015-12-22T03:00:18Z</time>
		</trkpt>

		<trkpt lat="42.866208" lon="-5.369627">
			<ele>1396.000000</ele>
		<time>2015-12-22T03:00:21Z</time>
		</trkpt>

		<trkpt lat="42.866095" lon="-5.369491">
			<ele>1391.000000</ele>
		<time>2015-12-22T03:00:24Z</time>
		</trkpt>

		<trkpt lat="42.865953" lon="-5.369302">
			<ele>1388.000000</ele>
		<time>2015-12-22T03:00:27Z</time>
		</trkpt>

		<trkpt lat="42.865819" lon="-5.369191">
			<ele>1382.000000</ele>
		<time>2015-12-22T03:00:30Z</time>
		</trkpt>

		<trkpt lat="42.865638" lon="-5.369030">
			<ele>1379.000000</ele>
		<time>2015-12-22T03:00:33Z</time>
		</trkpt>

		<trkpt lat="42.865473" lon="-5.368964">
			<ele>1375.000000</ele>
		<time>2015-12-22T03:00:36Z</time>
		</trkpt>

		<trkpt lat="42.865285" lon="-5.368876">
			<ele>1368.000000</ele>
		<time>2015-12-22T03:00:39Z</time>
		</trkpt>

		<trkpt lat="42.865108" lon="-5.368810">
			<ele>1366.000000</ele>
		<time>2015-12-22T03:00:42Z</time>
		</trkpt>

		<trkpt lat="42.864933" lon="-5.368731">
			<ele>1360.000000</ele>
		<time>2015-12-22T03:00:45Z</time>
		</trkpt>

		<trkpt lat="42.864763" lon="-5.368621">
			<ele>1355.000000</ele>
		<time>2015-12-22T03:00:48Z</time>
		</trkpt>

		<trkpt lat="42.864609" lon="-5.368457">
			<ele>1352.000000</ele>
		<time>2015-12-22T03:00:51Z</time>
		</trkpt>

		<trkpt lat="42.864504" lon="-5.368354">
			<ele>1352.000000</ele>
		<time>2015-12-22T03:00:54Z</time>
		</trkpt>

		<trkpt lat="42.864400" lon="-5.368187">
			<ele>1347.000000</ele>
		<time>2015-12-22T03:00:58Z</time>
		</trkpt>

		<trkpt lat="42.864359" lon="-5.368021">
			<ele>1344.000000</ele>
		<time>2015-12-22T03:01:01Z</time>
		</trkpt>

		<trkpt lat="42.864343" lon="-5.367839">
			<ele>1342.000000</ele>
		<time>2015-12-22T03:01:04Z</time>
		</trkpt>

		<trkpt lat="42.864268" lon="-5.367679">
			<ele>1337.000000</ele>
		<time>2015-12-22T03:01:07Z</time>
		</trkpt>

		<trkpt lat="42.864141" lon="-5.367491">
			<ele>1336.000000</ele>
		<time>2015-12-22T03:01:11Z</time>
		</trkpt>

		<trkpt lat="42.863930" lon="-5.367276">
			<ele>1331.000000</ele>
		<time>2015-12-22T03:01:16Z</time>
		</trkpt>

		<trkpt lat="42.863805" lon="-5.367155">
			<ele>1330.000000</ele>
		<time>2015-12-22T03:01:19Z</time>
		</trkpt>

		<trkpt lat="42.863710" lon="-5.367011">
			<ele>1325.000000</ele>
		<time>2015-12-22T03:01:22Z</time>
		</trkpt>

		<trkpt lat="42.863670" lon="-5.366842">
			<ele>1323.000000</ele>
		<time>2015-12-22T03:01:25Z</time>
		</trkpt>

		<trkpt lat="42.863559" lon="-5.366529">
			<ele>1320.000000</ele>
		<time>2015-12-22T03:01:30Z</time>
		</trkpt>

		<trkpt lat="42.863514" lon="-5.366347">
			<ele>1317.000000</ele>
		<time>2015-12-22T03:01:33Z</time>
		</trkpt>

		<trkpt lat="42.863420" lon="-5.366105">
			<ele>1315.000000</ele>
		<time>2015-12-22T03:01:36Z</time>
		</trkpt>

		<trkpt lat="42.863332" lon="-5.365960">
			<ele>1313.000000</ele>
		<time>2015-12-22T03:01:39Z</time>
		</trkpt>

		<trkpt lat="42.863238" lon="-5.365809">
			<ele>1309.000000</ele>
		<time>2015-12-22T03:01:42Z</time>
		</trkpt>

		<trkpt lat="42.863141" lon="-5.365682">
			<ele>1308.000000</ele>
		<time>2015-12-22T03:01:45Z</time>
		</trkpt>

		<trkpt lat="42.863028" lon="-5.365535">
			<ele>1304.000000</ele>
		<time>2015-12-22T03:01:48Z</time>
		</trkpt>

		<trkpt lat="42.862918" lon="-5.365416">
			<ele>1302.000000</ele>
		<time>2015-12-22T03:01:51Z</time>
		</trkpt>

		<trkpt lat="42.862670" lon="-5.365232">
			<ele>1299.000000</ele>
		<time>2015-12-22T03:01:54Z</time>
		</trkpt>

		<trkpt lat="42.862479" lon="-5.365165">
			<ele>1292.000000</ele>
		<time>2015-12-22T03:01:57Z</time>
		</trkpt>

		<trkpt lat="42.862334" lon="-5.365050">
			<ele>1290.000000</ele>
		<time>2015-12-22T03:02:00Z</time>
		</trkpt>

		<trkpt lat="42.862225" lon="-5.364956">
			<ele>1287.000000</ele>
		<time>2015-12-22T03:02:03Z</time>
		</trkpt>

		<trkpt lat="42.862137" lon="-5.364846">
			<ele>1284.000000</ele>
		<time>2015-12-22T03:02:06Z</time>
		</trkpt>

		<trkpt lat="42.862051" lon="-5.364691">
			<ele>1280.000000</ele>
		<time>2015-12-22T03:02:09Z</time>
		</trkpt>

		<trkpt lat="42.861962" lon="-5.364500">
			<ele>1280.000000</ele>
		<time>2015-12-22T03:02:12Z</time>
		</trkpt>

		<trkpt lat="42.861933" lon="-5.364304">
			<ele>1279.000000</ele>
		<time>2015-12-22T03:02:15Z</time>
		</trkpt>

		<trkpt lat="42.861909" lon="-5.364088">
			<ele>1271.000000</ele>
		<time>2015-12-22T03:02:18Z</time>
		</trkpt>

		<trkpt lat="42.861901" lon="-5.363839">
			<ele>1267.000000</ele>
		<time>2015-12-22T03:02:21Z</time>
		</trkpt>

		<trkpt lat="42.861867" lon="-5.363619">
			<ele>1262.000000</ele>
		<time>2015-12-22T03:02:24Z</time>
		</trkpt>

		<trkpt lat="42.861824" lon="-5.363410">
			<ele>1257.000000</ele>
		<time>2015-12-22T03:02:27Z</time>
		</trkpt>

		<trkpt lat="42.861754" lon="-5.363267">
			<ele>1254.000000</ele>
		<time>2015-12-22T03:02:30Z</time>
		</trkpt>

		<trkpt lat="42.861672" lon="-5.363113">
			<ele>1252.000000</ele>
		<time>2015-12-22T03:02:33Z</time>
		</trkpt>

		<trkpt lat="42.861575" lon="-5.362935">
			<ele>1249.000000</ele>
		<time>2015-12-22T03:02:36Z</time>
		</trkpt>

		<trkpt lat="42.861489" lon="-5.362709">
			<ele>1242.000000</ele>
		<time>2015-12-22T03:02:39Z</time>
		</trkpt>

		<trkpt lat="42.861411" lon="-5.362478">
			<ele>1240.000000</ele>
		<time>2015-12-22T03:02:42Z</time>
		</trkpt>

		<trkpt lat="42.861369" lon="-5.362230">
			<ele>1237.000000</ele>
		<time>2015-12-22T03:02:45Z</time>
		</trkpt>

		<trkpt lat="42.861326" lon="-5.362060">
			<ele>1235.000000</ele>
		<time>2015-12-22T03:02:48Z</time>
		</trkpt>

		<trkpt lat="42.861241" lon="-5.361875">
			<ele>1230.000000</ele>
		<time>2015-12-22T03:02:51Z</time>
		</trkpt>

		<trkpt lat="42.861184" lon="-5.361714">
			<ele>1227.000000</ele>
		<time>2015-12-22T03:02:54Z</time>
		</trkpt>

		<trkpt lat="42.861115" lon="-5.361505">
			<ele>1223.000000</ele>
		<time>2015-12-22T03:02:57Z</time>
		</trkpt>

		<trkpt lat="42.861123" lon="-5.361270">
			<ele>1220.000000</ele>
		<time>2015-12-22T03:03:00Z</time>
		</trkpt>

		<trkpt lat="42.861161" lon="-5.361013">
			<ele>1218.000000</ele>
		<time>2015-12-22T03:03:03Z</time>
		</trkpt>

		<trkpt lat="42.861131" lon="-5.360797">
			<ele>1215.000000</ele>
		<time>2015-12-22T03:03:06Z</time>
		</trkpt>

		<trkpt lat="42.861129" lon="-5.360591">
			<ele>1214.000000</ele>
		<time>2015-12-22T03:03:09Z</time>
		</trkpt>

		<trkpt lat="42.861159" lon="-5.360366">
			<ele>1211.000000</ele>
		<time>2015-12-22T03:03:12Z</time>
		</trkpt>

		<trkpt lat="42.861108" lon="-5.360055">
			<ele>1207.000000</ele>
		<time>2015-12-22T03:03:16Z</time>
		</trkpt>

		<trkpt lat="42.860989" lon="-5.359904">
			<ele>1205.000000</ele>
		<time>2015-12-22T03:03:19Z</time>
		</trkpt>

		<trkpt lat="42.860823" lon="-5.359918">
			<ele>1202.000000</ele>
		<time>2015-12-22T03:03:22Z</time>
		</trkpt>

		<trkpt lat="42.860650" lon="-5.360105">
			<ele>1199.000000</ele>
		<time>2015-12-22T03:03:25Z</time>
		</trkpt>

		<trkpt lat="42.860471" lon="-5.360240">
			<ele>1194.000000</ele>
		<time>2015-12-22T03:03:28Z</time>
		</trkpt>

		<trkpt lat="42.860328" lon="-5.360478">
			<ele>1184.000000</ele>
		<time>2015-12-22T03:03:31Z</time>
		</trkpt>

		<trkpt lat="42.860126" lon="-5.360564">
			<ele>1177.000000</ele>
		<time>2015-12-22T03:03:34Z</time>
		</trkpt>

		<trkpt lat="42.859935" lon="-5.360590">
			<ele>1172.000000</ele>
		<time>2015-12-22T03:03:37Z</time>
		</trkpt>

		<trkpt lat="42.859806" lon="-5.360474">
			<ele>1169.000000</ele>
		<time>2015-12-22T03:03:40Z</time>
		</trkpt>

		<trkpt lat="42.859829" lon="-5.360258">
			<ele>1165.000000</ele>
		<time>2015-12-22T03:03:43Z</time>
		</trkpt>

		<trkpt lat="42.859889" lon="-5.360036">
			<ele>1162.000000</ele>
		<time>2015-12-22T03:03:46Z</time>
		</trkpt>

		<trkpt lat="42.859929" lon="-5.359818">
			<ele>1157.000000</ele>
		<time>2015-12-22T03:03:49Z</time>
		</trkpt>

		<trkpt lat="42.859913" lon="-5.359569">
			<ele>1156.000000</ele>
		<time>2015-12-22T03:03:52Z</time>
		</trkpt>

		<trkpt lat="42.859897" lon="-5.359360">
			<ele>1153.000000</ele>
		<time>2015-12-22T03:03:55Z</time>
		</trkpt>

		<trkpt lat="42.859790" lon="-5.359176">
			<ele>1151.000000</ele>
		<time>2015-12-22T03:03:58Z</time>
		</trkpt>

		<trkpt lat="42.859608" lon="-5.359124">
			<ele>1153.000000</ele>
		<time>2015-12-22T03:04:01Z</time>
		</trkpt>

		<trkpt lat="42.859444" lon="-5.359228">
			<ele>1148.000000</ele>
		<time>2015-12-22T03:04:04Z</time>
		</trkpt>

		<trkpt lat="42.859264" lon="-5.359370">
			<ele>1145.000000</ele>
		<time>2015-12-22T03:04:07Z</time>
		</trkpt>

		<trkpt lat="42.859088" lon="-5.359405">
			<ele>1142.000000</ele>
		<time>2015-12-22T03:04:10Z</time>
		</trkpt>

		<trkpt lat="42.858961" lon="-5.359284">
			<ele>1136.000000</ele>
		<time>2015-12-22T03:04:13Z</time>
		</trkpt>

		<trkpt lat="42.858979" lon="-5.359072">
			<ele>1131.000000</ele>
		<time>2015-12-22T03:04:16Z</time>
		</trkpt>

		<trkpt lat="42.859085" lon="-5.358829">
			<ele>1130.000000</ele>
		<time>2015-12-22T03:04:19Z</time>
		</trkpt>

		<trkpt lat="42.859122" lon="-5.358624">
			<ele>1123.000000</ele>
		<time>2015-12-22T03:04:22Z</time>
		</trkpt>

		<trkpt lat="42.859003" lon="-5.358402">
			<ele>1118.000000</ele>
		<time>2015-12-22T03:04:25Z</time>
		</trkpt>

		<trkpt lat="42.858855" lon="-5.358301">
			<ele>1115.000000</ele>
		<time>2015-12-22T03:04:28Z</time>
		</trkpt>

		<trkpt lat="42.858662" lon="-5.358187">
			<ele>1110.000000</ele>
		<time>2015-12-22T03:04:31Z</time>
		</trkpt>

		<trkpt lat="42.858462" lon="-5.358098">
			<ele>1107.000000</ele>
		<time>2015-12-22T03:04:35Z</time>
		</trkpt>

		<trkpt lat="42.858376" lon="-5.358051">
			<ele>1105.000000</ele>
		<time>2015-12-22T03:04:38Z</time>
		</trkpt>

		<trkpt lat="42.858311" lon="-5.357978">
			<ele>1101.000000</ele>
		<time>2015-12-22T03:04:42Z</time>
		</trkpt>

		<trkpt lat="42.858243" lon="-5.357875">
			<ele>1101.000000</ele>
		<time>2015-12-22T03:04:46Z</time>
		</trkpt>

		<trkpt lat="42.858182" lon="-5.357805">
			<ele>1097.000000</ele>
		<time>2015-12-22T03:04:50Z</time>
		</trkpt>

		<trkpt lat="42.858131" lon="-5.357725">
			<ele>1096.000000</ele>
		<time>2015-12-22T03:04:54Z</time>
		</trkpt>

		<trkpt lat="42.858071" lon="-5.357657">
			<ele>1096.000000</ele>
		<time>2015-12-22T03:04:58Z</time>
		</trkpt>

		<trkpt lat="42.858062" lon="-5.357656">
			<ele>1091.000000</ele>
		<time>2015-12-22T03:05:59Z</time>
		</trkpt>

		<trkpt lat="42.858089" lon="-5.357661">
			<ele>1093.000000</ele>
		<time>2015-12-22T03:06:16Z</time>
		</trkpt>

		<trkpt lat="42.858087" lon="-5.357624">
			<ele>1092.000000</ele>
		<time>2015-12-22T03:06:30Z</time>
		</trkpt>

		<trkpt lat="42.858115" lon="-5.357612">
			<ele>1092.000000</ele>
		<time>2015-12-22T03:06:40Z</time>
		</trkpt>

		<trkpt lat="42.858124" lon="-5.357649">
			<ele>1092.000000</ele>
		<time>2015-12-22T03:06:49Z</time>
		</trkpt>

		<trkpt lat="42.858099" lon="-5.357672">
			<ele>1092.000000</ele>
		<time>2015-12-22T03:07:01Z</time>
		</trkpt>

		<trkpt lat="42.858042" lon="-5.357650">
			<ele>1093.000000</ele>
		<time>2015-12-22T03:07:05Z</time>
		</trkpt>

		<trkpt lat="42.858045" lon="-5.357611">
			<ele>1091.000000</ele>
		<time>2015-12-22T03:07:08Z</time>
		</trkpt>

		<trkpt lat="42.858058" lon="-5.357644">
			<ele>1092.000000</ele>
		<time>2015-12-22T03:07:21Z</time>
		</trkpt>

		<trkpt lat="42.858081" lon="-5.357665">
			<ele>1089.000000</ele>
		<time>2015-12-22T03:07:56Z</time>
		</trkpt>

		<trkpt lat="42.858112" lon="-5.357658">
			<ele>1091.000000</ele>
		<time>2015-12-22T03:08:02Z</time>
		</trkpt>

		<trkpt lat="42.858102" lon="-5.357623">
			<ele>1091.000000</ele>
		<time>2015-12-22T03:08:50Z</time>
		</trkpt>

		<trkpt lat="42.858086" lon="-5.357630">
			<ele>1095.000000</ele>
		<time>2015-12-22T03:08:58Z</time>
		</trkpt>

		<trkpt lat="42.858084" lon="-5.357680">
			<ele>1094.000000</ele>
		<time>2015-12-22T03:09:01Z</time>
		</trkpt>

		<trkpt lat="42.858109" lon="-5.357650">
			<ele>1092.000000</ele>
		<time>2015-12-22T03:09:05Z</time>
		</trkpt>

		<trkpt lat="42.858133" lon="-5.357632">
			<ele>1096.000000</ele>
		<time>2015-12-22T03:09:08Z</time>
		</trkpt>

		<trkpt lat="42.858162" lon="-5.357647">
			<ele>1093.000000</ele>
		<time>2015-12-22T03:09:57Z</time>
		</trkpt>

		<trkpt lat="42.858148" lon="-5.357680">
			<ele>1091.000000</ele>
		<time>2015-12-22T03:10:24Z</time>
		</trkpt>

		<trkpt lat="42.858126" lon="-5.357654">
			<ele>1090.000000</ele>
		<time>2015-12-22T03:10:27Z</time>
		</trkpt>

		<trkpt lat="42.858129" lon="-5.357576">
			<ele>1088.000000</ele>
		<time>2015-12-22T03:12:17Z</time>
		</trkpt>

		<trkpt lat="42.858160" lon="-5.357578">
			<ele>1089.000000</ele>
		<time>2015-12-22T03:12:20Z</time>
		</trkpt>

	</trkseg>
</trk>
</gpx>

